Terminal Aerodrome Forecast
Issued by NWS

Home | Current Version | Previous Version | Text Only | Print | Product List | Glossary On
Versions: 1 2 3 4 5 6 7 8 9 10 11 12 13 14 15 16 17 18 19 20 21 22 23 24 25 26 27 28
113
FTUS43 KICT 250311 AAB
TAFHUT
TAF AMD
KHUT 250311Z 2503/2524 13015G22KT P6SM VCTS BKN035CB
      TEMPO 2503/2505 VRB25G50KT 2SM +TSRA OVC015CB
     FM250800 15014G20KT P6SM VCTS BKN020CB
     FM251600 17016G23KT P6SM BKN035=

USA.gov is the U.S. government's official web portal to all federal, state and local government web resources and services.